Time;durP1;ratioP1;P1;durP2;ratioP2;P2;SDS_P1;SDS_P2;PMS_P1;PMS_P2;Temp;Humidity;BMP_temperature;BMP_pressure;BME280_temperature;BME280_humidity;BME280_pressure;Samples;Min_cycle;Max_cycle;Signal;HPM_P1;HPM_P2
2022/10/02 00:00:09;;;;;;;4.38;0.80;;;14.10;99.90;;;;;;5082873;28;20043;-41
2022/10/02 00:02:52;;;;;;;2.60;1.17;;;14.10;99.90;;;;;;5077282;28;20035;-37
2022/10/02 00:05:42;;;;;;;10.85;1.45;;;14.00;99.90;;;;;;5086789;28;20032;-42
2022/10/02 00:08:27;;;;;;;1.95;0.63;;;14.00;99.90;;;;;;5070667;28;20551;-44
2022/10/02 00:11:05;;;;;;;8.43;0.98;;;14.00;99.90;;;;;;5093862;28;20040;-42
2022/10/02 00:13:43;;;;;;;6.07;1.58;;;14.10;99.90;;;;;;5095515;28;20024;-42
2022/10/02 00:16:27;;;;;;;;;;;14.10;99.90;;;;;;5092979;28;20021;-43
2022/10/02 00:18:54;;;;;;;4.53;1.15;;;14.10;99.90;;;;;;5091384;28;19911;-42
2022/10/02 00:21:57;;;;;;;7.63;0.95;;;14.10;99.90;;;;;;5080031;28;20396;-41
2022/10/02 00:24:29;;;;;;;4.07;1.20;;;14.00;99.90;;;;;;5085226;28;20032;-46
2022/10/02 00:27:18;;;;;;;5.95;1.70;;;14.10;99.90;;;;;;5087458;28;20072;-42
2022/10/02 00:29:52;;;;;;;7.07;1.90;;;14.00;99.90;;;;;;5030929;28;20476;-46
2022/10/02 00:32:30;;;;;;;7.65;1.17;;;14.00;99.90;;;;;;5093318;28;20012;-43
2022/10/02 00:35:14;;;;;;;4.97;1.17;;;13.90;99.90;;;;;;5090521;28;20446;-43
2022/10/02 00:37:45;;;;;;;10.77;1.40;;;13.90;99.90;;;;;;5079672;28;20089;-43
2022/10/02 00:40:16;;;;;;;5.18;1.60;;;13.80;99.90;;;;;;5095006;28;20511;-43
2022/10/02 00:42:53;;;;;;;4.32;1.08;;;13.90;99.90;;;;;;5082344;28;20571;-40
2022/10/02 00:45:28;;;;;;;11.00;2.58;;;13.90;99.90;;;;;;5076093;28;20027;-40
2022/10/02 00:48:18;;;;;;;9.90;1.58;;;13.90;99.90;;;;;;5077959;28;20048;-42
2022/10/02 00:51:22;;;;;;;8.95;1.10;;;13.90;99.90;;;;;;5084203;28;20510;-42
2022/10/02 00:53:47;;;;;;;6.50;1.35;;;13.90;99.90;;;;;;5077362;28;20040;-44
2022/10/02 00:56:40;;;;;;;4.25;1.00;;;14.00;99.90;;;;;;5078547;28;20350;-41
2022/10/02 00:59:11;;;;;;;8.98;1.45;;;14.00;99.90;;;;;;5082004;28;20468;-43
2022/10/02 01:01:40;;;;;;;16.65;1.42;;;14.00;99.90;;;;;;5094813;28;20444;-52
2022/10/02 01:04:14;;;;;;;7.80;1.58;;;14.00;99.90;;;;;;5092721;28;20020;-46
2022/10/02 01:06:40;;;;;;;4.25;1.23;;;14.00;99.90;;;;;;5086919;28;20566;-46
2022/10/02 01:09:06;;;;;;;7.30;2.08;;;14.00;99.90;;;;;;5094595;28;20020;-42
2022/10/02 01:11:33;;;;;;;9.88;2.03;;;14.10;99.90;;;;;;5077033;28;20016;-41
2022/10/02 01:13:59;;;;;;;;;;;14.10;99.90;;;;;;5056639;28;20039;-42
2022/10/02 01:16:25;;;;;;;11.40;1.60;;;14.10;99.90;;;;;;5074052;28;19905;-42
2022/10/02 01:18:51;;;;;;;9.68;2.42;;;14.20;99.90;;;;;;5078310;28;20380;-43
2022/10/02 01:21:22;;;;;;;8.32;1.63;;;14.20;99.90;;;;;;5089873;28;20056;-41
2022/10/02 01:23:50;;;;;;;16.30;2.72;;;14.20;99.90;;;;;;5092350;28;20507;-43
2022/10/02 01:26:16;;;;;;;8.23;1.58;;;14.20;99.90;;;;;;5091374;28;20044;-43
2022/10/02 01:28:42;;;;;;;14.80;1.75;;;14.20;99.90;;;;;;5085347;28;20031;-43
2022/10/02 01:31:12;;;;;;;11.02;2.60;;;14.30;99.90;;;;;;5089226;28;20476;-45
2022/10/02 01:33:41;;;;;;;14.27;1.33;;;14.30;99.90;;;;;;5078201;28;20116;-42
2022/10/02 01:36:08;;;;;;;14.70;2.30;;;14.40;99.90;;;;;;5082978;28;20507;-44
2022/10/02 01:38:35;;;;;;;9.40;1.83;;;14.40;99.90;;;;;;5081573;28;20078;-44
2022/10/02 01:41:01;;;;;;;12.60;2.15;;;14.40;99.90;;;;;;5090992;28;20093;-35
2022/10/02 01:43:27;;;;;;;8.20;1.80;;;14.40;99.90;;;;;;5059365;28;20131;-36
2022/10/02 01:46:01;;;;;;;15.98;2.55;;;14.40;99.90;;;;;;5085890;28;20078;-40
2022/10/02 01:48:47;;;;;;;12.85;3.20;;;14.40;99.90;;;;;;5067465;28;20032;-36
2022/10/02 01:51:38;;;;;;;10.68;2.33;;;14.30;99.90;;;;;;5087058;28;20421;-38
2022/10/02 01:54:16;;;;;;;11.40;2.38;;;14.30;99.90;;;;;;5088723;28;20103;-46
2022/10/02 01:57:01;;;;;;;13.18;2.47;;;14.30;99.90;;;;;;5089850;28;20023;-38
2022/10/02 01:59:45;;;;;;;15.43;2.78;;;14.30;99.90;;;;;;5084902;28;20503;-37
2022/10/02 02:02:16;;;;;;;13.18;2.53;;;14.30;99.90;;;;;;5084727;28;20028;-39
2022/10/02 02:05:04;;;;;;;15.52;3.63;;;14.30;99.90;;;;;;5089306;28;20515;-38
2022/10/02 02:07:36;;;;;;;;;;;14.40;99.90;;;;;;5091670;28;20032;-42
2022/10/02 02:10:27;;;;;;;21.08;2.53;;;14.40;99.90;;;;;;5081451;28;20431;-43
2022/10/02 02:13:15;;;;;;;19.42;3.35;;;14.40;99.90;;;;;;5080339;28;20028;-42
2022/10/02 02:15:55;;;;;;;9.90;2.10;;;14.40;99.90;;;;;;5079185;28;20027;-42
2022/10/02 02:18:43;;;;;;;10.93;2.17;;;14.50;99.90;;;;;;5084471;28;20069;-42
2022/10/02 02:21:16;;;;;;;15.48;2.47;;;14.40;99.90;;;;;;5086247;28;20127;-40
2022/10/02 02:23:43;;;;;;;13.38;2.22;;;14.40;99.90;;;;;;5081755;28;20103;-41
2022/10/02 02:26:11;;;;;;;17.90;2.13;;;14.50;99.90;;;;;;5091173;28;20071;-41
2022/10/02 02:28:39;;;;;;;;;;;14.50;99.90;;;;;;5082710;28;20035;-45
2022/10/02 02:31:07;;;;;;;14.00;2.00;;;14.50;99.90;;;;;;5087710;28;19914;-41
2022/10/02 02:33:50;;;;;;;11.02;2.28;;;14.50;99.90;;;;;;5069259;28;20067;-42
2022/10/02 02:36:19;;;;;;;11.13;1.88;;;14.50;99.90;;;;;;5078048;28;20477;-42
2022/10/02 02:38:50;;;;;;;16.60;2.25;;;14.60;99.90;;;;;;5086103;28;20426;-45
2022/10/02 02:41:21;;;;;;;10.50;2.08;;;14.60;99.90;;;;;;5086768;28;20480;-42
2022/10/02 02:43:59;;;;;;;12.20;1.55;;;14.60;99.90;;;;;;5073684;28;20029;-41
2022/10/02 02:47:02;;;;;;;9.10;2.85;;;14.60;99.90;;;;;;5087086;28;20025;-42
2022/10/02 02:49:28;;;;;;;8.02;1.77;;;14.60;99.90;;;;;;5089904;28;20542;-43
2022/10/02 02:51:57;;;;;;;11.45;2.13;;;14.50;99.90;;;;;;5070395;28;20016;-42
2022/10/02 02:54:29;;;;;;;15.65;2.03;;;14.50;99.90;;;;;;5055471;28;20171;-43
2022/10/02 02:56:58;;;;;;;7.00;2.03;;;14.50;99.90;;;;;;5068695;28;20023;-44
2022/10/02 02:59:27;;;;;;;17.17;2.78;;;14.50;99.90;;;;;;5093092;28;20435;-41
2022/10/02 03:01:53;;;;;;;12.95;2.25;;;14.50;99.90;;;;;;5092851;28;20552;-46
2022/10/02 03:04:19;;;;;;;12.63;1.50;;;14.50;99.90;;;;;;5063333;28;20033;-43
2022/10/02 03:06:48;;;;;;;4.90;1.50;;;14.50;99.90;;;;;;5091051;28;20472;-44
2022/10/02 03:09:19;;;;;;;8.82;1.40;;;14.40;99.90;;;;;;5087779;28;20028;-41
2022/10/02 03:11:52;;;;;;;8.98;2.20;;;14.40;99.90;;;;;;5090930;28;20020;-43
2022/10/02 03:14:30;;;;;;;16.27;2.65;;;14.40;99.90;;;;;;5090316;28;20099;-41
2022/10/02 03:17:20;;;;;;;8.25;1.20;;;14.40;99.90;;;;;;5089969;28;20098;-42
2022/10/02 03:20:11;;;;;;;9.60;1.40;;;14.40;99.90;;;;;;5080597;28;20035;-40
2022/10/02 03:22:53;;;;;;;7.57;1.77;;;14.40;99.90;;;;;;5080572;28;20044;-44
2022/10/02 03:25:30;;;;;;;10.82;1.88;;;14.50;99.90;;;;;;5087508;28;20480;-41
2022/10/02 03:28:17;;;;;;;5.60;1.17;;;14.40;99.90;;;;;;5080966;28;20016;-46
2022/10/02 03:30:44;;;;;;;12.43;2.30;;;14.50;99.90;;;;;;5091697;28;20063;-42
2022/10/02 03:33:12;;;;;;;12.25;1.30;;;14.40;99.90;;;;;;5089810;28;20468;-43
2022/10/02 03:35:39;;;;;;;9.00;1.58;;;14.40;99.90;;;;;;5087103;28;20031;-44
2022/10/02 03:38:08;;;;;;;8.38;1.83;;;14.30;99.90;;;;;;5071088;28;20107;-41
2022/10/02 03:40:34;;;;;;;12.07;2.85;;;14.30;99.90;;;;;;5086743;28;20024;-42
2022/10/02 03:43:00;;;;;;;11.27;1.58;;;14.30;99.90;;;;;;5091637;28;20035;-42
2022/10/02 03:45:27;;;;;;;6.28;1.35;;;14.30;99.90;;;;;;5085175;28;20028;-45
2022/10/02 03:47:53;;;;;;;5.05;1.20;;;14.20;99.90;;;;;;5089654;28;20042;-41
2022/10/02 03:50:20;;;;;;;13.57;2.13;;;14.20;99.90;;;;;;5067140;28;20488;-41
2022/10/02 03:52:49;;;;;;;16.57;1.93;;;14.20;99.90;;;;;;5083322;28;20017;-56
2022/10/02 03:55:36;;;;;;;16.80;2.08;;;14.20;99.90;;;;;;5086745;28;20024;-42
2022/10/02 03:58:13;;;;;;;10.95;1.60;;;14.10;99.90;;;;;;5093523;28;20564;-43
2022/10/02 04:00:54;;;;;;;5.07;1.33;;;14.10;99.90;;;;;;5091602;28;20031;-41
2022/10/02 04:03:45;;;;;;;9.63;1.85;;;14.10;99.90;;;;;;5091696;28;20480;-40
2022/10/02 04:06:17;;;;;;;9.40;1.90;;;14.10;99.90;;;;;;5086727;28;20017;-44
2022/10/02 04:08:54;;;;;;;10.85;1.75;;;14.00;99.90;;;;;;5090481;28;20024;-42
2022/10/02 04:11:44;;;;;;;10.05;1.50;;;14.00;99.90;;;;;;5092976;28;20039;-42
2022/10/02 04:14:23;;;;;;;6.95;2.67;;;14.00;99.90;;;;;;5093739;28;20039;-41
2022/10/02 04:17:04;;;;;;;11.55;1.48;;;14.00;99.90;;;;;;5093788;28;20649;-44
2022/10/02 04:19:38;;;;;;;12.27;2.22;;;14.00;99.90;;;;;;5092536;28;20387;-41
2022/10/02 04:22:28;;;;;;;9.23;1.80;;;14.00;99.90;;;;;;5090616;28;20057;-41
2022/10/02 04:25:01;;;;;;;9.40;1.50;;;14.00;99.90;;;;;;5092347;28;20032;-38
2022/10/02 04:27:52;;;;;;;13.23;1.65;;;14.00;99.90;;;;;;5092749;28;20032;-42
2022/10/02 04:30:19;;;;;;;10.68;1.80;;;13.90;99.90;;;;;;5094806;28;20434;-41
2022/10/02 04:32:45;;;;;;;12.93;2.15;;;13.90;99.90;;;;;;5092243;28;20028;-34
2022/10/02 04:35:16;;;;;;;13.85;1.85;;;13.90;99.90;;;;;;5086613;28;20535;-41
2022/10/02 04:37:44;;;;;;;8.07;2.28;;;13.90;99.90;;;;;;5092396;28;20085;-42
2022/10/02 04:40:35;;;;;;;5.93;1.38;;;13.80;99.90;;;;;;5093239;28;20073;-48
2022/10/02 04:43:07;;;;;;;11.20;1.50;;;13.80;99.90;;;;;;5081811;28;20405;-44
2022/10/02 04:46:00;;;;;;;7.55;1.40;;;13.80;99.90;;;;;;5074734;28;20025;-44
2022/10/02 04:48:51;;;;;;;13.20;1.83;;;13.80;99.90;;;;;;5091339;28;20476;-67
2022/10/02 04:51:54;;;;;;;12.77;1.35;;;13.80;99.90;;;;;;5093299;28;20103;-43
2022/10/02 04:54:33;;;;;;;10.07;1.58;;;13.80;99.90;;;;;;5075638;28;20050;-42
2022/10/02 04:57:20;;;;;;;6.85;1.50;;;13.80;99.90;;;;;;5094775;28;20176;-43
2022/10/02 05:00:01;;;;;;;4.80;1.15;;;13.80;99.90;;;;;;5085038;28;20024;-43
2022/10/02 05:02:51;;;;;;;6.10;1.67;;;13.80;99.90;;;;;;5074547;28;20112;-51
2022/10/02 05:05:54;;;;;;;9.35;1.67;;;13.80;99.90;;;;;;5073824;28;20101;-42
2022/10/02 05:08:49;;;;;;;7.13;1.90;;;13.80;99.90;;;;;;5089235;28;20484;-43
2022/10/02 05:11:35;;;;;;;7.78;1.95;;;13.80;99.90;;;;;;5089279;28;20537;-45
2022/10/02 05:14:19;;;;;;;7.57;1.38;;;13.60;99.90;;;;;;5068282;28;20028;-41
2022/10/02 05:17:29;;;;;;;3.60;1.08;;;13.60;99.90;;;;;;5085443;28;20020;-42
2022/10/02 05:20:12;;;;;;;6.47;1.42;;;13.70;99.90;;;;;;5090265;28;20038;-54
2022/10/02 05:22:59;;;;;;;11.63;1.20;;;13.70;99.90;;;;;;5074078;28;20020;-44
2022/10/02 05:25:33;;;;;;;10.73;2.05;;;13.80;99.90;;;;;;5088919;28;20596;-43
2022/10/02 05:28:11;;;;;;;6.30;1.52;;;13.80;99.90;;;;;;5081583;28;20039;-43
2022/10/02 05:30:53;;;;;;;9.43;2.00;;;13.80;99.90;;;;;;5086185;28;20492;-44
2022/10/02 05:33:45;;;;;;;7.00;1.30;;;13.90;99.90;;;;;;5064793;28;20389;-44
2022/10/02 05:36:31;;;;;;;11.00;1.65;;;13.90;99.90;;;;;;5076131;28;20016;-44
2022/10/02 05:39:06;;;;;;;9.10;1.70;;;14.00;99.90;;;;;;5087908;28;20472;-43
2022/10/02 05:41:37;;;;;;;7.60;2.03;;;14.00;99.90;;;;;;5090115;28;20038;-45
2022/10/02 05:44:34;;;;;;;5.60;2.08;;;14.00;99.90;;;;;;5076316;28;20059;-38
2022/10/02 05:47:27;;;;;;;9.02;1.92;;;14.00;99.90;;;;;;5033063;28;20039;-45
2022/10/02 05:49:59;;;;;;;16.75;1.75;;;13.90;99.90;;;;;;5082756;28;20032;-47
2022/10/02 05:52:57;;;;;;;8.20;1.65;;;13.90;99.90;;;;;;5087805;28;20508;-46
2022/10/02 05:55:48;;;;;;;8.50;2.13;;;13.80;99.90;;;;;;5088887;28;20491;-43
2022/10/02 05:58:35;;;;;;;10.05;1.67;;;13.90;99.90;;;;;;5090022;28;20030;-41
2022/10/02 06:01:10;;;;;;;9.35;1.38;;;13.90;99.90;;;;;;5078731;28;20028;-39
2022/10/02 06:03:47;;;;;;;4.00;1.23;;;13.80;99.90;;;;;;5092002;28;20513;-49
2022/10/02 06:06:22;;;;;;;11.88;2.00;;;13.80;99.90;;;;;;5086701;28;20028;-43
2022/10/02 06:09:33;;;;;;;8.68;1.90;;;13.80;99.90;;;;;;5090889;28;20028;-44
2022/10/02 06:12:05;;;;;;;11.77;1.83;;;13.80;99.90;;;;;;5074330;28;20046;-45
2022/10/02 06:14:38;;;;;;;7.22;1.80;;;13.80;99.90;;;;;;5091354;28;20093;-43
2022/10/02 06:17:25;;;;;;;7.05;1.10;;;13.90;99.90;;;;;;5089689;28;20038;-42
2022/10/02 06:20:03;;;;;;;8.48;1.58;;;13.90;99.90;;;;;;5078139;28;20565;-51
2022/10/02 06:22:34;;;;;;;18.00;2.25;;;13.90;99.90;;;;;;5081681;28;20024;-49
2022/10/02 06:25:15;;;;;;;8.63;1.67;;;13.90;99.90;;;;;;5089715;28;20024;-41
2022/10/02 06:27:53;;;;;;;8.20;2.05;;;13.90;99.90;;;;;;5077735;28;20414;-45
2022/10/02 06:30:19;;;;;;;7.97;2.35;;;13.90;99.90;;;;;;5088964;28;20024;-42
2022/10/02 06:32:47;;;;;;;9.70;2.00;;;13.90;99.90;;;;;;5092114;28;20503;-42
2022/10/02 06:35:15;;;;;;;12.27;2.20;;;13.90;99.90;;;;;;5083697;28;20050;-43
2022/10/02 06:38:15;;;;;;;13.55;2.35;;;13.90;99.90;;;;;;5089698;28;20464;-42
2022/10/02 06:41:02;;;;;;;17.13;2.00;;;14.00;99.90;;;;;;5071496;28;20064;-45
2022/10/02 06:43:41;;;;;;;5.80;1.48;;;13.90;99.90;;;;;;5085803;28;20024;-42
2022/10/02 06:46:26;;;;;;;10.07;1.65;;;13.90;99.90;;;;;;5085947;28;20032;-44
2022/10/02 06:49:24;;;;;;;9.50;1.80;;;14.00;99.90;;;;;;5082553;28;20016;-42
2022/10/02 06:51:55;;;;;;;6.75;1.55;;;14.00;99.90;;;;;;5086661;28;20028;-42
2022/10/02 06:54:30;;;;;;;5.28;1.70;;;14.10;99.90;;;;;;5082336;28;20031;-40
2022/10/02 06:57:28;;;;;;;3.53;1.23;;;14.10;99.90;;;;;;5076097;28;20107;-42
2022/10/02 06:59:59;;;;;;;7.85;1.75;;;14.20;99.90;;;;;;5052991;28;20040;-56
2022/10/02 07:02:38;;;;;;;9.20;1.10;;;14.20;99.90;;;;;;5088300;28;20430;-43
2022/10/02 07:05:28;;;;;;;11.82;1.70;;;14.30;99.90;;;;;;5089923;28;20028;-42
2022/10/02 07:08:21;;;;;;;4.43;1.45;;;14.30;99.90;;;;;;5083755;28;20033;-34
2022/10/02 07:11:22;;;;;;;4.53;1.70;;;14.40;99.90;;;;;;5051397;28;20044;-47
2022/10/02 07:14:09;;;;;;;7.57;2.17;;;14.40;99.90;;;;;;5089413;28;20115;-57
2022/10/02 07:16:50;;;;;;;;;;;14.50;99.90;;;;;;5089697;28;20062;-46
2022/10/02 07:19:43;;;;;;;5.90;1.73;;;14.50;99.90;;;;;;5079662;28;19912;-50
2022/10/02 07:22:26;;;;;;;12.88;2.28;;;14.60;99.90;;;;;;5086154;28;20119;-35
2022/10/02 07:25:06;;;;;;;8.75;1.52;;;14.60;99.90;;;;;;5082077;28;20534;-34
2022/10/02 07:27:42;;;;;;;11.65;1.75;;;14.70;99.90;;;;;;5083854;28;20494;-41
2022/10/02 07:30:10;;;;;;;7.65;2.15;;;14.70;99.90;;;;;;5084154;28;20495;-44
2022/10/02 07:32:42;;;;;;;9.75;1.75;;;14.70;99.90;;;;;;5087348;28;20027;-46
2022/10/02 07:35:29;;;;;;;2.33;0.98;;;14.70;99.90;;;;;;5083683;28;20051;-39
2022/10/02 07:38:06;;;;;;;11.93;1.93;;;14.80;99.90;;;;;;5089248;28;20073;-39
2022/10/02 07:40:49;;;;;;;4.85;1.38;;;14.80;99.90;;;;;;5084773;28;20323;-47
2022/10/02 07:43:56;;;;;;;9.98;1.50;;;14.90;99.90;;;;;;5081323;28;20027;-48
2022/10/02 07:46:24;;;;;;;4.30;1.48;;;15.00;99.90;;;;;;5042244;28;20039;-44
2022/10/02 07:49:03;;;;;;;5.90;1.45;;;15.10;99.90;;;;;;5088435;28;20032;-42
2022/10/02 07:52:01;;;;;;;8.68;1.23;;;15.10;99.90;;;;;;5080872;28;20024;-35
2022/10/02 07:57:33;;;;;;;8.57;2.13;;;15.30;99.90;;;;;;5088997;28;20135;-39
2022/10/02 08:00:18;;;;;;;7.50;1.83;;;15.40;99.90;;;;;;5079830;28;20092;-41
2022/10/02 08:02:59;;;;;;;7.50;1.88;;;15.50;99.90;;;;;;5092185;28;20499;-46
2022/10/02 08:05:44;;;;;;;11.25;1.92;;;15.60;99.90;;;;;;5079740;28;20128;-45
2022/10/02 08:08:19;;;;;;;7.43;1.80;;;15.70;99.90;;;;;;5086503;28;20077;-44
2022/10/02 08:10:50;;;;;;;11.02;1.70;;;15.70;99.90;;;;;;5081564;28;20016;-40
2022/10/02 08:13:30;;;;;;;6.50;2.00;;;15.80;99.90;;;;;;5083209;28;20502;-40
2022/10/02 08:15:55;;;;;;;14.23;2.45;;;15.80;99.90;;;;;;5083147;28;20039;-36
2022/10/02 08:18:57;;;;;;;9.20;1.88;;;15.90;99.90;;;;;;5083386;28;20016;-38
2022/10/02 08:21:24;;;;;;;4.47;1.13;;;15.90;99.90;;;;;;5079178;28;20511;-35
2022/10/02 08:24:23;;;;;;;10.65;1.50;;;16.00;99.90;;;;;;5080734;28;20753;-45
2022/10/02 08:27:04;;;;;;;8.70;1.38;;;16.10;99.90;;;;;;5061296;28;20052;-36
2022/10/02 08:29:40;;;;;;;11.93;2.63;;;16.10;99.90;;;;;;5083759;28;20059;-37
2022/10/02 08:32:11;;;;;;;16.30;2.35;;;16.10;99.90;;;;;;5088185;28;20034;-38
2022/10/02 08:34:37;;;;;;;9.40;1.30;;;16.20;99.90;;;;;;5063534;28;20450;-40
2022/10/02 08:37:28;;;;;;;10.13;1.47;;;16.30;99.90;;;;;;5083977;28;20077;-36
2022/10/02 08:40:43;;;;;;;12.68;1.70;;;16.40;99.90;;;;;;5078754;28;20443;-37
2022/10/02 08:43:43;;;;;;;8.60;1.80;;;16.50;99.90;;;;;;5001814;28;20546;-42
2022/10/02 08:46:36;;;;;;;9.25;1.27;;;16.60;99.90;;;;;;5075375;28;20039;-37
2022/10/02 08:49:39;;;;;;;16.83;1.67;;;16.70;99.90;;;;;;5077351;28;20039;-38
2022/10/02 08:52:52;;;;;;;5.55;1.27;;;16.80;99.90;;;;;;5084989;28;20032;-36
2022/10/02 08:55:45;;;;;;;9.60;1.85;;;16.80;99.90;;;;;;5041919;28;20085;-38
2022/10/02 08:58:38;;;;;;;18.15;2.35;;;16.80;99.90;;;;;;5083053;28;20389;-35
2022/10/02 09:01:35;;;;;;;12.15;2.30;;;16.70;99.90;;;;;;5094568;28;20024;-37
2022/10/02 09:04:27;;;;;;;12.95;1.75;;;16.80;99.90;;;;;;5094506;28;20020;-33
2022/10/02 09:07:17;;;;;;;9.10;2.00;;;16.90;99.90;;;;;;5090977;28;20032;-38
2022/10/02 09:09:45;;;;;;;11.57;2.10;;;17.00;99.90;;;;;;5077888;28;20032;-43
2022/10/02 09:12:26;;;;;;;11.75;2.70;;;17.00;99.90;;;;;;5084017;28;20020;-42
2022/10/02 09:15:00;;;;;;;8.00;1.33;;;17.00;99.90;;;;;;5083121;28;20036;-35
2022/10/02 09:17:43;;;;;;;6.25;1.23;;;17.00;99.90;;;;;;5080689;28;20467;-42
2022/10/02 09:20:30;;;;;;;12.95;2.53;;;17.00;99.90;;;;;;5089091;28;20024;-44
2022/10/02 09:23:12;;;;;;;9.07;1.90;;;17.00;99.90;;;;;;5092418;28;20039;-44
2022/10/02 09:25:49;;;;;;;5.68;1.63;;;17.10;99.90;;;;;;5082316;28;20449;-48
2022/10/02 09:28:48;;;;;;;9.00;2.35;;;17.00;99.90;;;;;;5083413;28;20031;-54
2022/10/02 09:31:39;;;;;;;11.00;1.35;;;17.00;99.90;;;;;;5091282;28;20020;-45
2022/10/02 09:34:28;;;;;;;7.68;2.28;;;17.00;99.90;;;;;;5087364;28;20460;-42
2022/10/02 09:36:57;;;;;;;10.40;2.03;;;17.10;99.90;;;;;;5083941;28;20066;-42
2022/10/02 09:40:07;;;;;;;10.23;1.90;;;17.10;99.90;;;;;;5092128;28;20079;-42
2022/10/02 09:42:57;;;;;;;8.40;1.40;;;17.10;99.90;;;;;;5065028;28;20481;-42
2022/10/02 09:46:09;;;;;;;14.90;2.22;;;17.10;99.90;;;;;;5082649;28;20028;-39
2022/10/02 09:49:02;;;;;;;9.18;2.30;;;17.20;99.90;;;;;;5075662;28;20028;-42
2022/10/02 09:51:30;;;;;;;20.23;2.25;;;17.30;99.90;;;;;;5081297;28;20110;-51
2022/10/02 09:54:02;;;;;;;19.15;2.35;;;17.40;99.90;;;;;;5090539;28;20043;-43
2022/10/02 09:57:05;;;;;;;6.63;1.02;;;17.60;99.90;;;;;;5085576;28;20480;-43
2022/10/02 09:59:37;;;;;;;10.75;1.63;;;17.70;99.90;;;;;;5087289;28;20036;-42
2022/10/02 10:02:27;;;;;;;8.13;1.88;;;17.60;99.90;;;;;;5090811;28;20024;-42
2022/10/02 10:05:32;;;;;;;9.32;1.92;;;17.50;99.90;;;;;;5068679;28;20044;-44
2022/10/02 10:08:07;;;;;;;14.45;1.67;;;17.30;99.90;;;;;;5078269;28;20033;-42
2022/10/02 10:11:06;;;;;;;15.75;1.35;;;17.20;99.90;;;;;;5086013;28;20479;-43
2022/10/02 10:13:40;;;;;;;10.15;1.83;;;17.00;99.90;;;;;;5064277;28;20023;-40
2022/10/02 10:16:28;;;;;;;9.55;1.80;;;16.90;99.90;;;;;;5084189;28;20024;-47
2022/10/02 10:19:30;;;;;;;12.05;1.48;;;16.90;99.90;;;;;;5088952;28;20024;-46
2022/10/02 10:22:27;;;;;;;7.30;1.35;;;16.90;99.90;;;;;;5076951;28;20468;-44
2022/10/02 10:25:20;;;;;;;8.32;1.85;;;17.00;99.90;;;;;;5083464;28;20102;-41
2022/10/02 10:28:07;;;;;;;8.35;1.92;;;17.20;99.90;;;;;;5086126;28;20024;-42
2022/10/02 10:31:04;;;;;;;9.77;1.50;;;17.30;99.90;;;;;;5077338;28;20487;-36
2022/10/02 10:33:49;;;;;;;8.30;2.08;;;17.50;99.90;;;;;;5083793;28;20062;-42
2022/10/02 10:40:02;;;;;;;7.28;1.05;;;17.40;99.90;;;;;;5084618;28;20059;-44
2022/10/02 10:42:58;;;;;;;6.50;1.15;;;17.50;99.90;;;;;;5069483;28;20044;-41
2022/10/02 10:45:46;;;;;;;10.00;1.52;;;17.60;99.90;;;;;;5088607;28;20019;-44
2022/10/02 10:48:30;;;;;;;10.27;2.20;;;17.70;99.90;;;;;;5078603;28;20098;-55
2022/10/02 10:51:40;;;;;;;3.95;1.25;;;17.80;99.90;;;;;;5074936;28;20040;-43
2022/10/02 10:54:39;;;;;;;7.03;1.15;;;18.00;99.90;;;;;;5051294;28;20492;-45
2022/10/02 10:57:21;;;;;;;4.53;1.27;;;18.00;99.90;;;;;;5067485;28;20372;-44
2022/10/02 11:00:09;;;;;;;5.85;1.10;;;17.90;99.90;;;;;;5092158;28;20126;-43
2022/10/02 11:02:56;;;;;;;9.85;2.15;;;17.90;99.90;;;;;;5084838;28;20093;-42
2022/10/02 11:05:43;;;;;;;5.80;1.08;;;17.90;99.90;;;;;;5084243;28;20374;-45
2022/10/02 11:08:29;;;;;;;12.43;1.60;;;17.80;99.90;;;;;;5076559;28;20040;-52
2022/10/02 11:11:34;;;;;;;10.35;1.13;;;17.80;99.90;;;;;;5088916;28;20032;-42
2022/10/02 11:14:18;;;;;;;7.60;1.73;;;17.70;99.90;;;;;;5053031;28;20040;-46
2022/10/02 11:17:17;;;;;;;6.88;1.85;;;17.70;99.90;;;;;;5082049;28;20450;-45
2022/10/02 11:20:20;;;;;;;10.90;1.05;;;17.80;99.90;;;;;;5081455;28;20025;-48
2022/10/02 11:23:30;;;;;;;8.07;1.35;;;17.80;99.90;;;;;;5088623;28;20024;-45
2022/10/02 11:26:11;;;;;;;14.45;1.25;;;17.80;99.90;;;;;;5052322;28;20048;-45
2022/10/02 11:28:59;;;;;;;9.85;1.40;;;17.60;99.90;;;;;;5087107;28;20118;-42
2022/10/02 11:31:36;;;;;;;;;;;17.50;99.90;;;;;;5082347;28;20035;-47
2022/10/02 11:34:18;;;;;;;;;;;17.20;99.90;;;;;;5081065;28;20287;-46
2022/10/02 11:37:04;;;;;;;15.05;2.83;;;17.00;99.90;;;;;;5090484;28;20410;-42
2022/10/02 11:39:33;;;;;;;7.45;1.20;;;16.90;99.90;;;;;;5083611;28;20029;-46
2022/10/02 11:42:18;;;;;;;3.70;1.00;;;16.70;99.90;;;;;;5079479;28;20540;-43
2022/10/02 11:45:06;;;;;;;21.27;2.70;;;16.60;99.90;;;;;;5089542;28;20021;-42
2022/10/02 11:47:50;;;;;;;6.40;1.15;;;16.50;99.90;;;;;;5095536;28;20486;-43
2022/10/02 11:50:46;;;;;;;15.77;2.55;;;16.60;99.90;;;;;;5069046;28;20494;-42
2022/10/02 11:53:37;;;;;;;13.52;1.25;;;16.60;99.90;;;;;;5094792;28;20511;-44
2022/10/02 11:56:38;;;;;;;4.05;1.15;;;16.60;99.90;;;;;;5095388;28;20016;-45
2022/10/02 11:59:30;;;;;;;14.57;2.15;;;16.70;99.90;;;;;;5069043;28;20044;-54
2022/10/02 12:02:13;;;;;;;10.55;1.75;;;16.80;99.90;;;;;;5068257;28;20126;-43
2022/10/02 12:05:09;;;;;;;11.52;1.77;;;17.00;99.90;;;;;;5090135;28;20028;-41
2022/10/02 12:07:37;;;;;;;8.30;1.77;;;17.10;99.90;;;;;;5075154;28;20373;-45
2022/10/02 12:10:24;;;;;;;15.18;1.55;;;17.40;99.90;;;;;;5089626;28;20073;-43
2022/10/02 12:12:53;;;;;;;15.27;2.10;;;17.70;99.90;;;;;;5092280;28;20074;-38
2022/10/02 12:15:44;;;;;;;6.68;1.73;;;17.90;99.90;;;;;;5091353;28;20063;-40
2022/10/02 12:18:41;;;;;;;12.43;2.30;;;18.10;99.90;;;;;;5083667;28;20484;-45
2022/10/02 12:27:37;;;;;;;10.05;1.40;;;18.40;99.90;;;;;;5003504;28;20078;-41
2022/10/02 12:30:18;;;;;;;10.80;1.52;;;18.50;99.90;;;;;;5090194;28;20046;-48
2022/10/02 12:32:43;;;;;;;6.75;1.10;;;18.30;99.90;;;;;;5081558;28;20020;-42
2022/10/02 12:35:25;;;;;;;8.10;1.65;;;18.10;99.90;;;;;;5084067;28;20035;-38
2022/10/02 12:38:05;;;;;;;5.30;1.10;;;17.80;99.90;;;;;;5083690;28;20451;-46
2022/10/02 12:41:07;;;;;;;12.95;1.65;;;17.60;99.90;;;;;;5060782;28;21446;-41
2022/10/02 12:43:53;;;;;;;3.22;1.13;;;17.50;99.90;;;;;;5083807;28;20024;-40
2022/10/02 12:46:37;;;;;;;11.57;2.03;;;17.50;99.90;;;;;;5085448;28;20495;-45
2022/10/02 12:49:28;;;;;;;4.13;1.08;;;17.50;99.90;;;;;;5081484;28;21437;-43
2022/10/02 12:52:20;;;;;;;13.48;1.55;;;17.70;99.90;;;;;;5084992;28;20391;-47
2022/10/02 12:55:23;;;;;;;6.93;1.52;;;18.00;99.90;;;;;;5063215;28;20115;-42
2022/10/02 12:58:24;;;;;;;3.72;0.93;;;18.30;99.90;;;;;;5083101;28;20064;-47
2022/10/02 13:01:31;;;;;;;10.75;1.50;;;18.40;99.90;;;;;;5084567;28;20040;-44
2022/10/02 13:04:15;;;;;;;7.40;1.15;;;18.40;99.90;;;;;;5080443;28;20036;-46
2022/10/02 13:07:34;;;;;;;7.40;1.20;;;18.60;99.90;;;;;;5074258;28;20115;-46
2022/10/02 13:10:21;;;;;;;6.68;1.30;;;18.60;99.90;;;;;;5060337;28;20481;-44
2022/10/02 13:13:30;;;;;;;5.72;0.93;;;18.40;99.90;;;;;;5074356;28;20031;-47
2022/10/02 13:16:04;;;;;;;6.55;1.35;;;18.40;99.90;;;;;;5075082;28;20048;-42
2022/10/02 13:18:56;;;;;;;7.70;1.27;;;18.50;99.90;;;;;;5066444;28;20117;-45
2022/10/02 13:21:33;;;;;;;7.32;1.33;;;18.50;99.90;;;;;;5082308;28;20505;-45
2022/10/02 13:24:07;;;;;;;;;;;18.50;99.90;;;;;;5081361;28;20485;-45
2022/10/02 13:26:41;;;;;;;7.72;1.40;;;18.50;99.90;;;;;;5089339;28;19916;-43
2022/10/02 13:29:12;;;;;;;10.05;1.20;;;18.40;99.90;;;;;;5090862;28;20032;-40
2022/10/02 13:31:43;;;;;;;5.53;1.42;;;18.30;99.90;;;;;;5082790;28;20028;-44
2022/10/02 13:34:28;;;;;;;18.10;3.95;;;18.40;99.90;;;;;;5070887;28;20024;-44
2022/10/02 13:37:00;;;;;;;7.45;1.58;;;18.50;99.90;;;;;;5077288;28;20484;-46
2022/10/02 13:39:32;;;;;;;15.30;2.45;;;18.60;99.90;;;;;;5089678;28;20088;-43
2022/10/02 13:42:18;;;;;;;6.43;1.00;;;18.90;99.90;;;;;;5083361;28;20048;-37
2022/10/02 13:44:52;;;;;;;6.20;1.13;;;18.90;99.90;;;;;;5083846;28;20685;-45
2022/10/02 13:47:57;;;;;;;10.68;1.13;;;18.40;99.90;;;;;;5089043;28;20500;-45
2022/10/02 13:50:45;;;;;;;12.00;2.17;;;18.00;99.90;;;;;;5069170;28;20028;-49
2022/10/02 13:53:17;;;;;;;6.38;1.10;;;17.80;99.90;;;;;;5085902;28;20441;-46
2022/10/02 13:56:04;;;;;;;26.88;2.08;;;17.90;99.90;;;;;;5079490;28;20078;-44
2022/10/02 13:58:48;;;;;;;9.10;2.33;;;18.10;99.90;;;;;;5073619;28;20036;-42
2022/10/02 14:01:39;;;;;;;5.25;1.15;;;18.10;99.90;;;;;;5089819;28;20031;-42
2022/10/02 14:04:24;;;;;;;8.75;1.80;;;18.20;99.90;;;;;;5075113;28;20104;-42
2022/10/02 14:07:10;;;;;;;9.15;1.92;;;18.40;99.90;;;;;;5081801;28;20036;-43
2022/10/02 14:10:07;;;;;;;7.10;1.42;;;18.60;99.90;;;;;;5086200;28;20495;-47
2022/10/02 14:12:46;;;;;;;13.68;1.38;;;18.70;99.90;;;;;;5089403;28;20099;-45
2022/10/02 14:15:19;;;;;;;5.18;1.15;;;18.80;99.90;;;;;;5081375;28;20389;-43